Time;durP1;ratioP1;P1;durP2;ratioP2;P2;SDS_P1;SDS_P2;PMS_P1;PMS_P2;Temp;Humidity;BMP_temperature;BMP_pressure;BME280_temperature;BME280_humidity;BME280_pressure;Samples;Min_cycle;Max_cycle;Signal;HPM_P1;HPM_P2
2021/08/12 00:01:22;;;;;;;11.35;7.35;;;22.30;65.00;;;;;;5053699;28;20504;-76
2021/08/12 00:03:48;;;;;;;11.00;7.47;;;22.30;64.90;;;;;;5053564;28;20044;-77
2021/08/12 00:06:14;;;;;;;12.18;7.28;;;22.30;65.00;;;;;;5053728;28;20417;-76
2021/08/12 00:08:40;;;;;;;9.77;7.28;;;22.30;65.00;;;;;;5052332;28;20087;-76
2021/08/12 00:11:06;;;;;;;10.38;7.50;;;22.30;65.00;;;;;;5053449;28;20029;-76
2021/08/12 00:13:32;;;;;;;10.48;7.15;;;22.20;65.00;;;;;;5052294;28;20124;-76
2021/08/12 00:16:03;;;;;;;10.30;6.80;;;22.20;65.10;;;;;;5053329;28;20036;-77
2021/08/12 00:18:29;;;;;;;9.63;6.50;;;22.10;65.00;;;;;;5053283;28;20440;-76
2021/08/12 00:20:55;;;;;;;11.75;7.00;;;22.10;65.10;;;;;;5053235;28;20104;-77
2021/08/12 00:23:21;;;;;;;11.15;7.30;;;22.10;65.80;;;;;;5053506;28;20154;-77
2021/08/12 00:25:46;;;;;;;11.93;6.82;;;22.10;65.30;;;;;;5053370;28;20029;-77
2021/08/12 00:28:13;;;;;;;9.02;7.00;;;22.10;65.40;;;;;;5053348;28;20028;-77
2021/08/12 00:30:38;;;;;;;13.70;6.32;;;22.00;65.30;;;;;;5053112;28;20025;-77
2021/08/12 00:33:04;;;;;;;8.38;7.07;;;22.10;65.40;;;;;;5053122;28;20070;-77
2021/08/12 00:35:30;;;;;;;10.50;6.75;;;22.00;65.40;;;;;;5053166;28;20021;-77
2021/08/12 00:37:56;;;;;;;10.13;7.03;;;22.00;66.10;;;;;;5053055;28;20032;-77
2021/08/12 00:40:23;;;;;;;9.70;7.35;;;22.00;65.60;;;;;;5053045;28;20364;-77
2021/08/12 00:42:48;;;;;;;10.05;6.70;;;22.00;65.70;;;;;;5052972;28;20035;-77
2021/08/12 00:45:14;;;;;;;8.23;6.25;;;21.90;65.80;;;;;;5053016;28;20356;-76
2021/08/12 00:47:40;;;;;;;9.35;6.90;;;21.90;65.90;;;;;;5052966;28;20547;-79
2021/08/12 00:50:06;;;;;;;7.70;6.38;;;21.90;66.10;;;;;;5052727;28;20173;-77
2021/08/12 00:52:32;;;;;;;8.25;6.90;;;21.90;66.20;;;;;;5052753;28;20037;-77
2021/08/12 00:55:00;;;;;;;7.90;6.57;;;21.80;66.30;;;;;;5052559;28;20496;-76
2021/08/12 00:57:26;;;;;;;9.57;6.97;;;21.80;66.40;;;;;;5052593;28;20033;-76
2021/08/12 00:59:52;;;;;;;8.45;7.10;;;21.70;66.50;;;;;;5052845;28;20051;-76
2021/08/12 01:02:18;;;;;;;10.70;6.65;;;21.80;66.70;;;;;;5051680;28;20025;-76
2021/08/12 01:04:45;;;;;;;10.60;6.85;;;21.70;66.70;;;;;;5052665;28;20356;-76
2021/08/12 01:07:16;;;;;;;8.55;6.90;;;21.70;66.80;;;;;;5052691;28;20429;-76
2021/08/12 01:10:03;;;;;;;9.63;6.33;;;21.70;67.00;;;;;;5052582;28;20037;-77
2021/08/12 01:12:40;;;;;;;8.02;6.70;;;21.60;67.00;;;;;;5052639;28;20067;-77
2021/08/12 01:15:12;;;;;;;8.23;6.50;;;21.60;67.00;;;;;;5052444;28;20025;-77
2021/08/12 01:17:46;;;;;;;8.93;6.43;;;21.60;67.20;;;;;;5052417;28;20048;-77
2021/08/12 01:20:30;;;;;;;11.75;7.03;;;21.60;67.30;;;;;;5052531;28;20112;-77
2021/08/12 01:22:59;;;;;;;9.45;6.68;;;21.50;67.30;;;;;;5052039;28;20915;-77
2021/08/12 01:25:29;;;;;;;10.05;6.50;;;21.50;67.40;;;;;;5052503;28;20498;-77
2021/08/12 01:27:59;;;;;;;8.45;6.43;;;21.50;67.60;;;;;;5052226;28;20063;-77
2021/08/12 01:30:30;;;;;;;10.07;6.25;;;21.50;67.80;;;;;;5052247;28;20035;-77
2021/08/12 01:33:34;;;;;;;9.65;6.47;;;21.50;67.90;;;;;;5052099;28;20104;-77
2021/08/12 01:36:02;;;;;;;7.80;6.43;;;21.40;68.00;;;;;;5043581;28;20033;-78
2021/08/12 01:38:30;;;;;;;8.98;6.70;;;21.40;68.00;;;;;;5052561;28;20455;-77
2021/08/12 01:40:58;;;;;;;10.65;6.72;;;21.40;68.20;;;;;;5052101;28;20021;-77
2021/08/12 01:43:24;;;;;;;7.40;6.15;;;21.40;68.30;;;;;;5052079;28;20021;-77
2021/08/12 01:45:58;;;;;;;9.50;6.57;;;21.30;68.40;;;;;;5051881;28;20017;-77
2021/08/12 01:48:26;;;;;;;13.63;7.07;;;21.30;68.50;;;;;;5051977;28;20367;-77
2021/08/12 01:50:53;;;;;;;8.48;6.38;;;21.30;68.70;;;;;;5051934;28;20468;-76
2021/08/12 01:53:20;;;;;;;9.88;6.75;;;21.20;68.70;;;;;;5050712;28;20467;-76
2021/08/12 01:55:47;;;;;;;7.53;5.93;;;21.20;68.80;;;;;;5050520;28;20048;-75
2021/08/12 01:58:16;;;;;;;12.93;6.63;;;21.20;68.80;;;;;;5051775;28;20037;-75
2021/08/12 02:00:48;;;;;;;13.77;7.22;;;21.20;68.90;;;;;;5051726;28;20021;-75
2021/08/12 02:03:16;;;;;;;8.60;6.53;;;21.10;69.00;;;;;;5051712;28;20467;-75
2021/08/12 02:05:47;;;;;;;9.73;6.45;;;21.10;69.00;;;;;;5051747;28;20051;-75
2021/08/12 02:08:13;;;;;;;7.25;6.18;;;21.10;69.10;;;;;;5051704;28;20035;-76
2021/08/12 02:10:41;;;;;;;8.65;6.70;;;21.10;69.20;;;;;;5051291;28;20017;-76
2021/08/12 02:13:09;;;;;;;10.20;6.80;;;21.10;69.20;;;;;;5051093;28;20017;-76
2021/08/12 02:15:35;;;;;;;9.43;6.90;;;21.00;69.20;;;;;;5051416;28;20021;-76
2021/08/12 02:18:01;;;;;;;8.40;6.75;;;21.00;69.20;;;;;;5051415;28;20028;-77
2021/08/12 02:20:27;;;;;;;10.77;7.18;;;20.90;69.20;;;;;;5051385;28;20021;-76
2021/08/12 02:23:18;;;;;;;10.45;6.90;;;20.90;69.30;;;;;;5051469;28;20026;-76
2021/08/12 02:26:05;;;;;;;7.87;6.43;;;20.90;69.40;;;;;;5050005;28;20395;-76
2021/08/12 02:28:32;;;;;;;10.43;6.85;;;20.80;69.30;;;;;;5051530;28;20094;-76
2021/08/12 02:31:00;;;;;;;11.07;6.50;;;20.70;69.40;;;;;;5051496;28;20487;-76
2021/08/12 02:33:29;;;;;;;9.50;6.80;;;20.70;69.40;;;;;;5052674;28;20021;-77
2021/08/12 02:35:56;;;;;;;9.80;6.65;;;20.70;69.50;;;;;;5055115;28;20029;-77
2021/08/12 02:38:25;;;;;;;8.65;6.72;;;20.70;69.60;;;;;;5055095;28;20033;-78
2021/08/12 02:40:52;;;;;;;10.25;6.70;;;20.60;69.60;;;;;;5055458;28;20044;-77
2021/08/12 02:43:19;;;;;;;10.77;6.65;;;20.60;70.30;;;;;;5055300;28;20032;-77
2021/08/12 02:45:47;;;;;;;9.23;6.97;;;20.50;69.70;;;;;;5055258;28;20021;-78
2021/08/12 02:48:14;;;;;;;9.55;7.20;;;20.50;69.80;;;;;;5055219;28;20158;-77
2021/08/12 02:50:42;;;;;;;10.00;7.03;;;20.50;70.50;;;;;;5055148;28;20033;-78
2021/08/12 02:53:09;;;;;;;9.82;6.70;;;20.50;70.00;;;;;;5055124;28;20031;-77
2021/08/12 02:55:36;;;;;;;10.45;6.95;;;20.60;70.00;;;;;;5054836;28;20067;-76
2021/08/12 02:58:03;;;;;;;9.98;7.28;;;20.80;69.90;;;;;;5054953;28;20033;-76
2021/08/12 03:00:30;;;;;;;12.07;7.20;;;21.00;69.60;;;;;;5055071;28;20020;-78
2021/08/12 03:02:56;;;;;;;9.40;6.30;;;21.10;69.20;;;;;;5055020;28;20021;-78
2021/08/12 03:05:23;;;;;;;9.18;7.00;;;21.30;68.90;;;;;;5054866;28;20021;-77
2021/08/12 03:07:49;;;;;;;11.35;7.18;;;21.40;68.80;;;;;;5054783;28;20029;-77
2021/08/12 03:10:18;;;;;;;9.02;7.22;;;21.90;68.50;;;;;;5054849;28;20021;-77
2021/08/12 03:12:45;;;;;;;9.77;7.07;;;22.30;67.40;;;;;;5054705;28;20029;-76
2021/08/12 03:15:12;;;;;;;9.20;6.70;;;22.80;66.60;;;;;;5053455;28;20029;-77
2021/08/12 03:17:38;;;;;;;9.35;7.07;;;23.40;65.40;;;;;;5054447;28;20025;-77
2021/08/12 03:20:08;;;;;;;9.10;6.40;;;24.20;64.00;;;;;;5054492;28;20025;-77
2021/08/12 03:22:34;;;;;;;8.80;6.95;;;25.00;62.30;;;;;;5054464;28;20458;-77
2021/08/12 03:25:00;;;;;;;12.80;8.00;;;25.80;60.70;;;;;;5054527;28;20087;-76
2021/08/12 03:27:26;;;;;;;9.90;6.78;;;26.60;59.10;;;;;;5054365;28;20085;-76
2021/08/12 03:29:52;;;;;;;12.15;7.00;;;27.40;57.50;;;;;;5054225;28;20037;-76
2021/08/12 03:32:19;;;;;;;11.85;6.90;;;28.10;56.00;;;;;;5054163;28;20029;-77
2021/08/12 03:34:45;;;;;;;12.73;8.02;;;28.80;54.60;;;;;;5054163;28;20083;-77
2021/08/12 03:37:11;;;;;;;11.60;6.85;;;29.50;53.40;;;;;;5053932;28;20075;-78
2021/08/12 03:39:37;;;;;;;8.98;6.47;;;30.10;52.20;;;;;;5053730;28;20463;-77
2021/08/12 03:42:03;;;;;;;9.70;6.38;;;30.80;51.10;;;;;;5054096;28;20104;-78
2021/08/12 03:44:29;;;;;;;8.00;6.45;;;31.40;49.90;;;;;;5053846;28;20090;-78
2021/08/12 03:46:54;;;;;;;9.63;6.45;;;32.00;48.80;;;;;;5053808;28;20024;-78
2021/08/12 03:49:20;;;;;;;11.07;6.55;;;32.60;48.00;;;;;;5053905;28;20025;-77
2021/08/12 03:51:46;;;;;;;8.50;6.85;;;33.10;47.10;;;;;;5053905;28;20033;-77
2021/08/12 03:54:12;;;;;;;8.10;7.03;;;33.50;46.40;;;;;;5052504;28;20116;-77
2021/08/12 03:56:38;;;;;;;10.23;7.32;;;34.00;45.70;;;;;;5053506;28;20428;-77
2021/08/12 03:59:04;;;;;;;9.63;7.00;;;34.60;45.00;;;;;;5053904;28;20021;-76
2021/08/12 04:01:31;;;;;;;10.07;6.97;;;35.10;44.30;;;;;;5054011;28;20036;-77
2021/08/12 04:03:56;;;;;;;11.82;7.10;;;35.60;43.70;;;;;;5053935;28;20021;-76
2021/08/12 04:06:22;;;;;;;8.75;6.72;;;36.10;43.10;;;;;;5053405;28;20391;-76
2021/08/12 04:08:48;;;;;;;10.65;6.60;;;36.50;42.50;;;;;;5053427;28;20060;-76
2021/08/12 04:11:13;;;;;;;10.90;6.15;;;37.00;42.00;;;;;;5053275;28;20033;-76
2021/08/12 04:13:39;;;;;;;7.95;6.43;;;37.50;41.50;;;;;;5053328;28;20455;-76
2021/08/12 04:16:05;;;;;;;10.43;7.45;;;37.80;40.90;;;;;;5051688;28;20028;-77
2021/08/12 04:18:31;;;;;;;8.85;6.72;;;38.20;40.50;;;;;;5052621;28;20022;-77
2021/08/12 04:20:56;;;;;;;7.53;6.38;;;38.50;40.00;;;;;;5052659;28;20056;-78
2021/08/12 04:23:22;;;;;;;13.80;6.05;;;38.90;39.70;;;;;;5053186;28;20037;-78
2021/08/12 04:25:49;;;;;;;9.52;6.50;;;39.20;39.30;;;;;;5052958;28;20025;-77
2021/08/12 04:28:15;;;;;;;10.23;7.10;;;39.60;39.00;;;;;;5052926;28;20017;-76
2021/08/12 04:30:41;;;;;;;7.68;6.43;;;39.80;38.40;;;;;;5052609;28;20442;-77
2021/08/12 04:33:06;;;;;;;9.32;6.32;;;40.10;38.20;;;;;;5052902;28;20033;-76
2021/08/12 04:35:32;;;;;;;13.65;6.10;;;40.40;37.90;;;;;;5051127;28;20452;-75
2021/08/12 04:37:58;;;;;;;11.30;5.95;;;40.80;37.60;;;;;;5050897;28;20021;-75
2021/08/12 04:40:24;;;;;;;11.73;6.63;;;41.10;37.20;;;;;;5051310;28;20387;-76
2021/08/12 04:42:52;;;;;;;11.57;6.65;;;41.20;37.00;;;;;;5051360;28;20093;-76
2021/08/12 04:45:20;;;;;;;8.40;6.55;;;41.60;36.70;;;;;;5048680;28;20017;-77
2021/08/12 04:47:46;;;;;;;9.55;6.55;;;41.80;36.40;;;;;;5051197;28;20017;-76
2021/08/12 04:50:12;;;;;;;10.52;7.28;;;42.10;36.10;;;;;;5051160;28;20024;-76
2021/08/12 04:52:39;;;;;;;8.85;7.78;;;42.40;35.90;;;;;;5048589;28;20045;-76
2021/08/12 04:55:07;;;;;;;7.47;6.38;;;42.70;35.60;;;;;;5051075;28;20060;-76
2021/08/12 04:57:33;;;;;;;9.13;6.65;;;42.90;35.30;;;;;;5050097;28;20048;-75
2021/08/12 04:59:58;;;;;;;8.75;6.15;;;43.10;35.20;;;;;;5051013;28;20040;-77
2021/08/12 05:02:26;;;;;;;14.25;6.30;;;43.40;35.00;;;;;;5051470;28;20021;-76
2021/08/12 05:04:52;;;;;;;13.05;6.43;;;43.50;34.80;;;;;;5051034;28;20017;-76
2021/08/12 05:07:18;;;;;;;9.52;6.15;;;43.80;34.70;;;;;;5048515;28;20191;-76
2021/08/12 05:09:43;;;;;;;11.75;7.70;;;44.00;34.40;;;;;;5050706;28;20100;-76
2021/08/12 05:12:09;;;;;;;12.68;7.25;;;44.30;34.40;;;;;;5050614;28;20033;-75
2021/08/12 05:14:35;;;;;;;13.40;7.45;;;44.40;34.10;;;;;;5050440;28;20020;-76
2021/08/12 05:17:01;;;;;;;15.85;6.75;;;44.70;34.00;;;;;;5050230;28;20061;-76
2021/08/12 05:19:26;;;;;;;16.13;7.47;;;45.00;33.80;;;;;;5050665;28;20065;-75
2021/08/12 05:21:52;;;;;;;7.65;6.43;;;45.20;33.70;;;;;;5050180;28;20025;-77
2021/08/12 05:24:18;;;;;;;8.95;6.32;;;45.30;33.50;;;;;;5047263;28;20017;-77
2021/08/12 05:26:44;;;;;;;15.25;7.40;;;45.50;33.30;;;;;;5051082;28;20398;-77
2021/08/12 05:29:10;;;;;;;13.55;6.70;;;45.70;33.20;;;;;;5051496;28;20024;-77
2021/08/12 05:31:36;;;;;;;12.00;6.57;;;45.90;33.10;;;;;;5051093;28;20032;-78
2021/08/12 05:34:01;;;;;;;12.32;6.53;;;46.10;32.90;;;;;;5051111;28;20332;-79
2021/08/12 05:36:27;;;;;;;10.20;7.43;;;46.20;32.90;;;;;;5050169;28;20036;-77
2021/08/12 05:38:57;;;;;;;10.77;6.22;;;46.40;32.80;;;;;;5051162;28;20102;-77
2021/08/12 05:41:23;;;;;;;9.18;6.53;;;46.60;32.60;;;;;;5051146;28;20141;-77
2021/08/12 05:43:49;;;;;;;9.45;6.40;;;46.60;32.40;;;;;;5051584;28;20025;-77
2021/08/12 05:46:14;;;;;;;12.18;6.68;;;46.80;32.50;;;;;;5051303;28;20079;-77
2021/08/12 05:48:40;;;;;;;7.53;6.47;;;46.90;32.40;;;;;;5051289;28;20029;-77
2021/08/12 05:51:06;;;;;;;7.97;5.93;;;47.10;32.40;;;;;;5050820;28;20029;-77
2021/08/12 05:53:32;;;;;;;8.77;6.18;;;47.30;32.30;;;;;;5051177;28;20033;-76
2021/08/12 05:55:57;;;;;;;7.82;6.15;;;47.40;32.30;;;;;;5051322;28;20102;-77
2021/08/12 05:58:23;;;;;;;7.93;5.90;;;47.50;32.80;;;;;;5051642;28;20033;-77
2021/08/12 06:00:49;;;;;;;11.80;6.57;;;47.50;32.00;;;;;;5049703;28;20021;-77
2021/08/12 06:03:15;;;;;;;9.23;6.88;;;47.50;31.90;;;;;;5051336;28;20021;-77
2021/08/12 06:05:41;;;;;;;13.02;6.38;;;47.50;31.90;;;;;;5050989;28;20025;-79
2021/08/12 06:08:10;;;;;;;7.53;6.43;;;47.60;31.90;;;;;;5050505;28;20534;-79
2021/08/12 06:10:36;;;;;;;8.35;5.60;;;47.80;31.80;;;;;;5051233;28;20104;-79
2021/08/12 06:13:02;;;;;;;9.55;5.40;;;47.90;31.70;;;;;;5050946;28;20100;-79
2021/08/12 06:15:29;;;;;;;8.05;5.82;;;48.00;31.60;;;;;;5050918;28;20053;-81
2021/08/12 06:17:55;;;;;;;8.30;5.30;;;48.00;31.70;;;;;;5051085;28;20360;-80
2021/08/12 06:20:22;;;;;;;9.32;6.00;;;48.00;31.60;;;;;;5051177;28;20421;-79
2021/08/12 06:22:49;;;;;;;7.35;6.38;;;48.00;31.60;;;;;;5051168;28;20017;-75
2021/08/12 06:25:16;;;;;;;19.83;7.57;;;48.00;31.60;;;;;;5049795;28;20505;-78
2021/08/12 06:27:42;;;;;;;9.73;5.50;;;48.00;31.60;;;;;;5051061;28;20025;-78
2021/08/12 06:30:09;;;;;;;9.48;6.05;;;48.00;31.60;;;;;;5050764;28;20017;-78
2021/08/12 06:32:36;;;;;;;6.63;5.63;;;48.00;31.50;;;;;;5050715;28;20025;-77
2021/08/12 06:35:02;;;;;;;15.07;6.20;;;47.90;31.60;;;;;;5050996;28;20036;-77
2021/08/12 06:37:31;;;;;;;8.75;5.63;;;47.80;31.70;;;;;;5050792;28;20497;-77
2021/08/12 06:39:57;;;;;;;8.15;5.70;;;47.80;31.80;;;;;;5050013;28;20371;-77
2021/08/12 06:42:23;;;;;;;7.28;5.50;;;47.60;31.60;;;;;;5049813;28;20028;-77
2021/08/12 06:44:48;;;;;;;14.93;6.07;;;47.40;31.60;;;;;;5050440;28;20021;-77
2021/08/12 06:47:14;;;;;;;9.30;5.78;;;47.30;31.70;;;;;;5050728;28;20029;-77
2021/08/12 06:49:40;;;;;;;9.75;5.75;;;47.10;31.80;;;;;;5050301;28;20387;-77
2021/08/12 06:52:06;;;;;;;9.48;6.10;;;47.00;32.00;;;;;;5049694;28;20029;-78
2021/08/12 06:54:32;;;;;;;6.43;5.68;;;46.90;32.10;;;;;;5050899;28;20025;-77
2021/08/12 06:56:58;;;;;;;6.78;5.55;;;46.70;32.10;;;;;;5050113;28;20093;-77
2021/08/12 06:59:23;;;;;;;12.23;5.50;;;46.60;32.20;;;;;;5049198;28;20498;-77
2021/08/12 07:01:49;;;;;;;12.02;5.30;;;46.60;32.30;;;;;;5050590;28;20024;-77
2021/08/12 07:04:15;;;;;;;8.35;5.25;;;46.50;32.40;;;;;;5050879;28;20419;-77
2021/08/12 07:06:41;;;;;;;14.25;5.20;;;46.30;32.40;;;;;;5050522;28;20063;-77
2021/08/12 07:09:06;;;;;;;5.60;5.10;;;46.20;32.40;;;;;;5050525;28;20032;-78
2021/08/12 07:11:32;;;;;;;11.45;4.95;;;46.10;32.40;;;;;;5050392;28;20032;-78
2021/08/12 07:13:58;;;;;;;7.95;4.95;;;46.00;32.40;;;;;;5050549;28;20055;-78
2021/08/12 07:16:24;;;;;;;10.93;5.05;;;45.80;32.50;;;;;;5050106;28;20025;-78
2021/08/12 07:18:49;;;;;;;9.45;5.53;;;45.60;32.70;;;;;;5050232;28;20500;-78
2021/08/12 07:21:23;;;;;;;9.18;5.32;;;45.50;33.00;;;;;;5052848;28;20379;-78
2021/08/12 07:23:49;;;;;;;13.27;6.20;;;45.30;33.10;;;;;;5054152;28;20017;-78
2021/08/12 07:26:16;;;;;;;9.10;4.70;;;45.10;33.10;;;;;;5054367;28;20089;-77
2021/08/12 07:28:43;;;;;;;12.30;5.78;;;44.90;33.10;;;;;;5054112;28;20021;-77
2021/08/12 07:31:11;;;;;;;9.77;5.32;;;44.60;33.00;;;;;;5054211;28;20021;-77
2021/08/12 07:33:37;;;;;;;20.00;17.85;;;44.50;33.30;;;;;;5053769;28;20024;-77
2021/08/12 07:36:04;;;;;;;18.92;6.97;;;44.30;33.40;;;;;;5053992;28;20028;-76
2021/08/12 07:38:31;;;;;;;7.68;5.63;;;44.10;33.50;;;;;;5053877;28;20829;-79
2021/08/12 07:40:58;;;;;;;7.90;5.40;;;43.90;33.70;;;;;;5053732;28;20021;-78
2021/08/12 07:43:24;;;;;;;11.15;4.80;;;43.70;33.80;;;;;;5053613;28;20865;-78
2021/08/12 07:45:50;;;;;;;10.98;5.40;;;43.50;33.60;;;;;;5053316;28;20087;-77
2021/08/12 07:48:15;;;;;;;7.75;5.55;;;43.30;34.00;;;;;;5053690;28;20467;-79
2021/08/12 07:50:42;;;;;;;7.20;4.95;;;43.20;34.10;;;;;;5053418;28;20143;-78
2021/08/12 07:53:07;;;;;;;7.63;4.90;;;43.10;34.30;;;;;;5053680;28;20029;-78
2021/08/12 07:55:33;;;;;;;8.13;4.95;;;42.80;34.40;;;;;;5053252;28;20037;-78
2021/08/12 07:57:59;;;;;;;12.13;5.30;;;42.60;34.40;;;;;;5053203;28;20110;-78
2021/08/12 08:00:25;;;;;;;8.13;4.95;;;42.30;34.40;;;;;;5053145;28;20021;-79
2021/08/12 08:02:51;;;;;;;9.88;4.80;;;42.20;34.60;;;;;;5053299;28;20021;-79
2021/08/12 08:05:20;;;;;;;5.75;4.90;;;41.90;34.60;;;;;;5053302;28;20048;-80
2021/08/12 08:07:48;;;;;;;9.10;4.88;;;41.70;35.00;;;;;;5053056;28;20082;-80
2021/08/12 08:10:14;;;;;;;8.57;5.15;;;41.40;35.10;;;;;;5053304;28;20035;-79
2021/08/12 08:12:41;;;;;;;11.70;5.00;;;41.10;35.10;;;;;;5053068;28;20090;-78
2021/08/12 08:15:12;;;;;;;12.98;5.70;;;40.80;35.20;;;;;;5053131;28;20467;-79
2021/08/12 08:17:38;;;;;;;11.43;5.68;;;40.40;35.20;;;;;;5053063;28;20021;-78
2021/08/12 08:20:05;;;;;;;8.07;4.88;;;40.10;35.40;;;;;;5051696;28;20083;-78
2021/08/12 08:22:31;;;;;;;6.88;5.47;;;39.80;35.70;;;;;;5052206;28;20017;-80
2021/08/12 08:24:57;;;;;;;5.72;4.60;;;39.50;36.00;;;;;;5052820;28;20356;-79
2021/08/12 08:27:23;;;;;;;14.18;4.93;;;39.10;36.30;;;;;;5052206;28;20105;-76
2021/08/12 08:29:50;;;;;;;5.85;5.28;;;38.90;36.70;;;;;;5052232;28;20025;-79
2021/08/12 08:32:16;;;;;;;8.48;5.95;;;38.60;36.70;;;;;;5052310;28;20032;-78
2021/08/12 08:34:42;;;;;;;8.75;5.32;;;38.30;36.80;;;;;;5052364;28;20029;-79
2021/08/12 08:37:08;;;;;;;12.75;5.10;;;38.00;37.20;;;;;;5051939;28;20033;-79
2021/08/12 08:39:34;;;;;;;8.73;4.97;;;37.80;37.10;;;;;;5052016;28;20096;-78
2021/08/12 08:42:01;;;;;;;8.10;4.28;;;37.60;37.00;;;;;;5052552;28;20444;-80
2021/08/12 08:44:28;;;;;;;8.00;4.60;;;37.50;37.00;;;;;;5052212;28;20143;-78
2021/08/12 08:46:56;;;;;;;11.93;4.80;;;37.30;36.80;;;;;;5051907;28;20033;-78
2021/08/12 08:49:22;;;;;;;10.60;4.32;;;37.20;36.90;;;;;;5052116;28;20056;-78
2021/08/12 08:51:51;;;;;;;8.50;5.80;;;37.10;37.00;;;;;;5050500;28;20387;-78
2021/08/12 08:54:18;;;;;;;11.05;4.90;;;36.90;37.00;;;;;;5050826;28;20024;-79
2021/08/12 08:56:45;;;;;;;9.07;5.60;;;36.80;36.90;;;;;;5051259;28;20060;-79
2021/08/12 08:59:11;;;;;;;9.02;4.20;;;36.70;37.00;;;;;;5051770;28;20104;-77
2021/08/12 09:01:40;;;;;;;7.30;4.53;;;36.50;37.20;;;;;;5051599;28;20017;-77
2021/08/12 09:04:06;;;;;;;7.65;4.47;;;36.40;37.10;;;;;;5050802;28;20078;-79
2021/08/12 09:06:32;;;;;;;10.95;4.82;;;36.30;37.00;;;;;;5051419;28;20029;-78
2021/08/12 09:08:58;;;;;;;8.02;4.43;;;36.20;36.90;;;;;;5051815;28;20036;-78
2021/08/12 09:11:26;;;;;;;8.27;4.70;;;36.10;37.10;;;;;;5051252;28;20029;-77
2021/08/12 09:13:52;;;;;;;10.57;5.18;;;36.00;37.10;;;;;;5051539;28;20029;-78
2021/08/12 09:16:35;;;;;;;16.17;5.25;;;35.80;37.30;;;;;;5051338;28;20088;-77
2021/08/12 09:19:22;;;;;;;9.70;4.80;;;35.70;37.70;;;;;;5049825;28;20017;-79
2021/08/12 09:22:09;;;;;;;10.82;5.00;;;35.60;37.80;;;;;;5050966;28;20498;-77
2021/08/12 09:24:50;;;;;;;11.48;7.03;;;35.60;37.90;;;;;;5051109;28;20071;-78
2021/08/12 09:27:20;;;;;;;10.95;4.97;;;35.50;38.30;;;;;;5051045;28;20021;-78
2021/08/12 09:29:45;;;;;;;12.60;5.03;;;35.50;38.50;;;;;;5050988;28;20033;-79
2021/08/12 09:32:11;;;;;;;10.13;5.10;;;35.40;38.60;;;;;;5050982;28;20021;-79
2021/08/12 09:34:41;;;;;;;13.10;5.40;;;35.40;38.70;;;;;;5051279;28;20126;-78
2021/08/12 09:37:08;;;;;;;9.48;4.85;;;35.30;38.40;;;;;;5050462;28;20387;-79
2021/08/12 09:39:34;;;;;;;5.78;4.68;;;35.20;38.40;;;;;;5050788;28;20611;-77
2021/08/12 09:42:01;;;;;;;10.38;4.28;;;35.10;38.30;;;;;;5050976;28;20025;-77
2021/08/12 09:44:35;;;;;;;10.68;4.57;;;35.10;38.50;;;;;;5050454;28;20017;-78
2021/08/12 09:47:04;;;;;;;12.63;4.40;;;34.90;38.30;;;;;;5050821;28;20036;-79
2021/08/12 09:49:38;;;;;;;8.23;4.30;;;34.80;38.30;;;;;;5048689;28;20120;-76
2021/08/12 09:52:20;;;;;;;12.93;4.22;;;34.70;38.30;;;;;;5050560;28;20447;-77
2021/08/12 09:54:55;;;;;;;6.78;4.38;;;34.60;38.10;;;;;;5050495;28;20024;-78
2021/08/12 09:57:21;;;;;;;12.93;4.28;;;34.50;37.90;;;;;;5050793;28;20033;-79
2021/08/12 09:59:51;;;;;;;16.48;4.28;;;34.40;38.10;;;;;;5051120;28;20023;-78
2021/08/12 10:02:17;;;;;;;18.15;4.38;;;34.20;38.00;;;;;;5050595;28;20312;-78
2021/08/12 10:04:44;;;;;;;10.82;4.40;;;34.20;38.10;;;;;;5050766;28;20032;-77
2021/08/12 10:07:37;;;;;;;9.38;3.70;;;34.10;38.00;;;;;;5050318;28;20108;-80
2021/08/12 10:10:21;;;;;;;19.25;4.18;;;34.00;38.20;;;;;;5049232;28;20033;-78
2021/08/12 10:12:57;;;;;;;7.97;4.00;;;33.90;38.20;;;;;;5050543;28;20032;-78
2021/08/12 10:15:29;;;;;;;13.15;4.10;;;33.90;38.50;;;;;;5050753;28;20464;-79
2021/08/12 10:17:57;;;;;;;7.40;3.92;;;33.80;38.70;;;;;;5050805;28;20104;-78
2021/08/12 10:20:28;;;;;;;6.75;3.80;;;33.80;39.10;;;;;;5050362;28;20363;-78
2021/08/12 10:22:56;;;;;;;10.52;4.00;;;33.70;39.30;;;;;;5049707;28;20023;-78
2021/08/12 10:25:23;;;;;;;5.82;3.80;;;33.60;39.40;;;;;;5050307;28;20044;-79
2021/08/12 10:27:53;;;;;;;9.10;4.10;;;33.60;39.70;;;;;;5050077;28;20025;-79
2021/08/12 10:30:20;;;;;;;9.35;3.63;;;33.50;39.80;;;;;;5050019;28;20467;-77
2021/08/12 10:32:57;;;;;;;16.13;3.75;;;33.40;40.00;;;;;;5050519;28;20105;-78
2021/08/12 10:35:29;;;;;;;15.30;4.85;;;33.30;40.30;;;;;;5050246;28;20470;-78
2021/08/12 10:37:55;;;;;;;15.30;4.60;;;33.30;40.30;;;;;;5049783;28;20741;-78
2021/08/12 10:40:23;;;;;;;7.50;3.50;;;33.20;40.20;;;;;;5050091;28;20482;-78
2021/08/12 10:42:50;;;;;;;8.55;4.00;;;33.10;39.50;;;;;;5049041;28;20025;-78
2021/08/12 10:45:21;;;;;;;9.50;3.70;;;33.00;39.60;;;;;;5050493;28;20063;-78
2021/08/12 10:47:55;;;;;;;18.67;5.18;;;32.90;39.60;;;;;;5050316;28;20028;-75
2021/08/12 10:50:24;;;;;;;9.80;3.95;;;32.80;40.00;;;;;;5049842;28;20080;-77
2021/08/12 10:53:07;;;;;;;16.17;4.65;;;32.70;39.80;;;;;;5049610;28;20103;-77
2021/08/12 10:55:57;;;;;;;10.05;4.40;;;32.60;39.50;;;;;;5051265;28;20410;-76
2021/08/12 10:58:25;;;;;;;21.35;4.90;;;32.50;40.00;;;;;;5054513;28;20072;-79
2021/08/12 11:01:09;;;;;;;13.25;5.22;;;32.50;40.20;;;;;;5054753;28;20121;-80
2021/08/12 11:03:34;;;;;;;16.42;3.75;;;32.30;40.30;;;;;;5053685;28;20372;-80
2021/08/12 11:06:07;;;;;;;12.95;4.47;;;32.20;40.50;;;;;;5054217;28;20029;-80
2021/08/12 11:11:25;;;;;;;6.93;4.10;;;32.10;40.90;;;;;;5054667;28;20094;-79
2021/08/12 11:13:56;;;;;;;7.63;3.95;;;32.00;40.80;;;;;;5054278;28;20029;-79
2021/08/12 11:16:23;;;;;;;10.93;4.00;;;31.90;40.90;;;;;;5053873;28;20468;-79
2021/08/12 11:18:53;;;;;;;10.70;4.93;;;31.90;41.20;;;;;;5054232;28;20025;-79
2021/08/12 11:21:31;;;;;;;11.13;4.95;;;31.80;41.10;;;;;;5054153;28;20473;-80
2021/08/12 11:24:07;;;;;;;13.65;3.83;;;31.80;40.90;;;;;;5054253;28;20025;-79
2021/08/12 11:26:43;;;;;;;12.00;4.40;;;31.80;41.10;;;;;;5054260;28;20365;-79
2021/08/12 11:29:34;;;;;;;8.35;4.00;;;31.70;41.20;;;;;;5052482;28;20399;-80
2021/08/12 11:32:09;;;;;;;5.82;4.05;;;31.60;41.10;;;;;;5053845;28;20078;-80
2021/08/12 11:34:45;;;;;;;5.70;3.90;;;31.50;41.30;;;;;;5053628;28;20025;-79
2021/08/12 11:37:27;;;;;;;10.05;3.70;;;31.50;41.50;;;;;;5053670;28;20025;-79
2021/08/12 11:40:10;;;;;;;7.88;3.80;;;31.50;41.30;;;;;;5052613;28;20025;-78
2021/08/12 11:42:40;;;;;;;19.25;5.47;;;31.50;41.60;;;;;;5052861;28;20062;-78
2021/08/12 11:45:25;;;;;;;15.75;4.13;;;31.40;41.50;;;;;;5053015;28;20527;-77
2021/08/12 11:47:56;;;;;;;6.22;3.60;;;31.30;41.50;;;;;;5053077;28;20029;-78
2021/08/12 11:50:26;;;;;;;8.27;3.72;;;31.30;41.10;;;;;;5053054;28;20033;-78
2021/08/12 11:52:52;;;;;;;7.28;3.95;;;31.20;41.10;;;;;;5052720;28;20037;-80
2021/08/12 11:55:23;;;;;;;6.80;3.53;;;31.10;41.10;;;;;;5052341;28;20052;-78
2021/08/12 11:57:57;;;;;;;9.48;5.70;;;31.00;41.30;;;;;;5053157;28;20041;-78
2021/08/12 12:00:29;;;;;;;8.80;4.25;;;31.00;41.40;;;;;;5052536;28;20013;-77
2021/08/12 12:02:57;;;;;;;10.18;4.82;;;30.90;41.30;;;;;;5052530;28;20033;-78
2021/08/12 12:05:25;;;;;;;9.25;4.60;;;30.90;41.00;;;;;;5052320;28;20428;-78
2021/08/12 12:08:07;;;;;;;7.82;4.13;;;30.90;41.20;;;;;;5052386;28;20029;-79
2021/08/12 12:10:42;;;;;;;7.53;4.18;;;30.80;41.40;;;;;;5052926;28;20047;-80
2021/08/12 12:13:19;;;;;;;9.65;3.65;;;30.70;41.60;;;;;;5052986;28;20021;-78
2021/08/12 12:15:49;;;;;;;10.73;3.30;;;30.70;41.40;;;;;;5052927;28;20107;-78
2021/08/12 12:18:31;;;;;;;12.93;4.18;;;30.60;41.10;;;;;;5052388;28;20025;-77
2021/08/12 12:21:07;;;;;;;9.43;4.10;;;30.60;41.30;;;;;;5052775;28;20476;-78
2021/08/12 12:23:34;;;;;;;10.43;4.00;;;30.60;41.60;;;;;;5052281;28;20021;-79
2021/08/12 12:26:01;;;;;;;10.32;3.90;;;30.50;41.90;;;;;;5052387;28;20036;-79
2021/08/12 12:28:28;;;;;;;6.88;3.95;;;30.50;42.00;;;;;;5052409;28;20540;-79
2021/08/12 12:30:54;;;;;;;7.38;3.35;;;30.40;42.00;;;;;;5052215;28;20043;-79
2021/08/12 12:33:24;;;;;;;11.30;4.18;;;30.40;42.20;;;;;;5052429;28;20826;-79
2021/08/12 12:35:51;;;;;;;16.23;3.55;;;30.40;42.30;;;;;;5052168;28;20021;-78
2021/08/12 12:38:21;;;;;;;9.95;3.53;;;30.30;42.10;;;;;;5052846;28;20471;-79
2021/08/12 12:40:48;;;;;;;8.93;4.28;;;30.30;42.00;;;;;;5053607;28;20013;-77
2021/08/12 12:43:15;;;;;;;4.97;3.53;;;30.20;41.80;;;;;;5053190;28;20032;-78
2021/08/12 12:45:53;;;;;;;10.82;3.47;;;30.20;41.70;;;;;;5053288;28;20383;-79
2021/08/12 12:48:34;;;;;;;5.50;3.53;;;30.10;42.10;;;;;;5052834;28;20029;-77
2021/08/12 12:51:05;;;;;;;8.97;3.63;;;30.00;42.40;;;;;;5053600;28;20021;-78
2021/08/12 12:53:41;;;;;;;4.85;3.65;;;30.00;42.70;;;;;;5053479;28;20035;-78